createdAt,value
2022-08-09T00:00:21.019Z,102145.53
2022-08-09T00:02:50.004Z,102136.53
2022-08-09T00:06:15.598Z,102140.63
2022-08-09T00:08:10.799Z,102137.34
2022-08-09T00:10:41.114Z,102150.16
2022-08-09T00:13:17.198Z,102137.91
2022-08-09T00:15:57.540Z,102146.06
2022-08-09T00:18:27.069Z,102133.53
2022-08-09T00:20:56.140Z,102135.16
2022-08-09T00:23:54.768Z,102145.53
2022-08-09T00:26:11.396Z,102133.81
2022-08-09T00:28:40.844Z,102150.41
2022-08-09T00:31:50.420Z,102134.91
2022-08-09T00:33:55.895Z,102140.34
2022-08-09T00:36:29.853Z,102148.78
2022-08-09T00:38:58.497Z,102141.72
2022-08-09T00:44:10.358Z,102140.63
2022-08-09T00:44:25.864Z,102143.34
2022-08-09T00:47:04.990Z,102136.25
2022-08-09T00:49:38.505Z,102136.00
2022-08-09T00:52:15.954Z,102140.06
2022-08-09T00:54:46.035Z,102143.06
2022-08-09T00:57:13.804Z,102142.53
2022-08-09T00:59:52.597Z,102144.16
2022-08-09T01:02:29.954Z,102127.00
2022-08-09T01:05:14.258Z,102141.44
2022-08-09T01:08:01.533Z,102133.81
2022-08-09T01:10:51.174Z,102131.09
2022-08-09T01:13:59.494Z,102139.78
2022-08-09T01:16:35.367Z,102138.72
2022-08-09T01:19:40.211Z,102140.34
2022-08-09T01:22:48.271Z,102136.81
2022-08-09T01:26:10.674Z,102140.06
2022-08-09T01:28:45.999Z,102132.44
2022-08-09T01:32:29.132Z,102143.06
2022-08-09T01:34:11.450Z,102137.63
2022-08-09T01:36:42.301Z,102138.97
2022-08-09T01:39:10.446Z,102141.16
2022-08-09T01:41:55.912Z,102140.06
2022-08-09T01:44:30.644Z,102134.91
2022-08-09T01:47:02.032Z,102137.63
2022-08-09T01:49:38.896Z,102148.25
2022-08-09T01:52:15.581Z,102128.63
2022-08-09T01:54:47.314Z,102142.53
2022-08-09T01:57:40.164Z,102147.16
2022-08-09T02:00:34.654Z,102142.53
2022-08-09T02:03:01.758Z,102148.25
2022-08-09T02:05:37.862Z,102146.59
2022-08-09T02:08:35.159Z,102131.63
2022-08-09T02:11:03.588Z,102144.69
2022-08-09T02:13:55.444Z,102147.16
2022-08-09T02:16:59.092Z,102145.50
2022-08-09T02:19:23.335Z,102135.13
2022-08-09T02:21:55.983Z,102139.22
2022-08-09T02:24:35.429Z,102136.75
2022-08-09T02:27:08.444Z,102142.19
2022-08-09T02:29:45.968Z,102149.81
2022-08-09T02:32:19.752Z,102151.72
2022-08-09T02:34:57.762Z,102143.28
2022-08-09T02:37:31.595Z,102148.72
2022-08-09T02:40:09.464Z,102147.91
2022-08-09T02:42:41.531Z,102148.16
2022-08-09T02:45:16.731Z,102151.44
2022-08-09T02:47:58.022Z,102153.63
2022-08-09T02:50:32.754Z,102146.53
2022-08-09T02:53:08.835Z,102149.81
2022-08-09T02:55:53.623Z,102149.81
2022-08-09T02:58:35.661Z,102156.06
2022-08-09T03:01:07.753Z,102154.44
2022-08-09T03:04:18.164Z,102156.88
2022-08-09T03:06:29.443Z,102151.44
2022-08-09T03:08:59.305Z,102157.44
2022-08-09T03:11:29.725Z,102155.25
2022-08-09T03:14:18.397Z,102153.34
2022-08-09T03:16:48.203Z,102148.72
2022-08-09T03:19:58.276Z,102144.91
2022-08-09T03:22:12.086Z,102147.63
2022-08-09T03:24:52.126Z,102146.00
2022-08-09T03:27:22.277Z,102144.91
2022-08-09T03:29:57.717Z,102161.50
2022-08-09T03:32:37.203Z,102159.59
2022-08-09T03:35:24.161Z,102156.06
2022-08-09T03:37:57.066Z,102152.81
2022-08-09T03:40:25.929Z,102159.06
2022-08-09T03:42:58.178Z,102157.72
2022-08-09T03:46:05.340Z,102155.25
2022-08-09T03:48:12.684Z,102167.22
2022-08-09T03:50:53.466Z,102170.50
2022-08-09T03:53:21.575Z,102168.59
2022-08-09T03:55:59.190Z,102167.50
2022-08-09T03:58:26.435Z,102160.44
2022-08-09T04:00:55.337Z,102174.31
2022-08-09T04:03:35.514Z,102167.25
2022-08-09T04:06:10.533Z,102168.88
2022-08-09T04:08:38.990Z,102171.59
2022-08-09T04:11:06.055Z,102173.78
2022-08-09T04:14:36.952Z,102177.09
2022-08-09T04:16:25.841Z,102173.53
2022-08-09T04:18:53.414Z,102176.00
2022-08-09T04:21:20.850Z,102181.16
2022-08-09T04:23:53.865Z,102182.00
2022-08-09T04:26:23.174Z,102181.44
2022-08-09T04:28:50.630Z,102189.06
2022-08-09T04:31:17.598Z,102195.31
2022-08-09T04:33:51.516Z,102193.16
2022-08-09T04:36:26.725Z,102193.44
2022-08-09T04:38:57.236Z,102195.06
2022-08-09T04:41:32.943Z,102195.34
2022-08-09T04:44:05.680Z,102198.59
2022-08-09T04:46:37.656Z,102196.16
2022-08-09T04:49:40.874Z,102210.88
2022-08-09T04:52:09.920Z,102201.34
2022-08-09T04:54:37.002Z,102208.69
2022-08-09T04:57:04.344Z,102207.06
2022-08-09T04:59:31.970Z,102211.44
2022-08-09T05:02:02.957Z,102213.34
2022-08-09T05:04:30.849Z,102223.97
2022-08-09T05:07:01.341Z,102228.84
2022-08-09T05:09:42.270Z,102220.72
2022-08-09T05:12:16.910Z,102224.25
2022-08-09T05:14:43.926Z,102222.06
2022-08-09T05:18:36.517Z,102223.97
2022-08-09T05:19:58.991Z,102224.28
2022-08-09T05:22:33.432Z,102226.19
2022-08-09T05:25:07.098Z,102227.81
2022-08-09T05:30:29.931Z,102235.16
2022-08-09T05:33:02.611Z,102229.69
2022-08-09T05:35:29.887Z,102221.50
2022-08-09T05:37:59.241Z,102230.75
2022-08-09T05:40:28.579Z,102239.75
2022-08-09T05:42:56.785Z,102233.19
2022-08-09T05:48:16.673Z,102239.16
2022-08-09T05:50:51.307Z,102242.97
2022-08-09T05:53:33.403Z,102240.53
2022-08-09T05:56:01.830Z,102241.34
2022-08-09T05:58:30.026Z,102251.16
2022-08-09T06:00:58.176Z,102244.88
2022-08-09T06:03:34.934Z,102241.84
2022-08-09T06:06:14.209Z,102233.34
2022-08-09T06:08:41.217Z,102242.84
2022-08-09T06:11:17.434Z,102238.75
2022-08-09T06:13:45.875Z,102242.56
2022-08-09T06:16:16.285Z,102232.97
2022-08-09T06:18:43.652Z,102239.75
2022-08-09T06:21:11.148Z,102249.78
2022-08-09T06:23:58.171Z,102252.50
2022-08-09T06:26:28.370Z,102246.75
2022-08-09T06:29:00.216Z,102259.56
2022-08-09T06:34:22.855Z,102251.00
2022-08-09T06:36:59.109Z,102256.69
2022-08-09T06:39:48.676Z,102276.31
2022-08-09T06:42:19.838Z,102268.59
2022-08-09T06:44:51.887Z,102266.06
2022-08-09T06:47:21.860Z,102273.06
2022-08-09T06:50:13.862Z,102267.25
2022-08-09T06:52:46.955Z,102259.00
2022-08-09T06:55:22.918Z,102266.31
2022-08-09T06:58:40.891Z,102262.97
2022-08-09T07:01:02.861Z,102271.91
2022-08-09T07:03:33.864Z,102266.31
2022-08-09T07:06:07.495Z,102267.91
2022-08-09T07:08:37.299Z,102266.75
2022-08-09T07:11:12.330Z,102270.84
2022-08-09T07:13:45.380Z,102271.06
2022-08-09T07:16:42.831Z,102272.41
2022-08-09T07:19:18.721Z,102273.75
2022-08-09T07:21:55.287Z,102281.59
2022-08-09T07:27:33.330Z,102284.16
2022-08-09T07:30:02.742Z,102292.47
2022-08-09T07:32:33.606Z,102287.09
2022-08-09T07:35:10.170Z,102277.84
2022-08-09T07:37:44.139Z,102267.03
2022-08-09T07:40:27.110Z,102272.66
2022-08-09T07:43:01.179Z,102279.63
2022-08-09T07:45:38.372Z,102280.28
2022-08-09T07:48:28.781Z,102277.09
2022-08-09T07:51:09.581Z,102283.88
2022-08-09T07:54:07.836Z,102275.34
2022-08-09T07:56:49.104Z,102285.41
2022-08-09T07:59:34.198Z,102280.34
2022-08-09T08:02:10.583Z,102289.13
2022-08-09T08:05:18.547Z,102279.53
2022-08-09T08:09:00.980Z,102281.81
2022-08-09T08:11:15.248Z,102270.22
2022-08-09T08:13:56.650Z,102271.31
2022-08-09T08:16:31.676Z,102264.06
2022-08-09T08:19:02.956Z,102267.19
2022-08-09T08:21:30.620Z,102265.03
2022-08-09T08:24:01.033Z,102270.41
2022-08-09T08:26:42.087Z,102262.78
2022-08-09T08:29:20.033Z,102255.16
2022-08-09T08:32:03.413Z,102260.38
2022-08-09T08:34:36.229Z,102258.25
2022-08-09T08:37:03.890Z,102258.94
2022-08-09T08:39:39.271Z,102259.75
2022-08-09T08:42:11.162Z,102241.81
2022-08-09T08:44:39.431Z,102250.81
2022-08-09T08:47:12.452Z,102244.44
2022-08-09T08:49:48.657Z,102243.41
2022-08-09T08:52:52.540Z,102254.22
2022-08-09T08:55:06.123Z,102254.59
2022-08-09T08:57:34.945Z,102240.53
2022-08-09T09:00:12.618Z,102241.94
2022-08-09T09:03:23.128Z,102243.28
2022-08-09T09:06:05.144Z,102246.41
2022-08-09T09:08:40.633Z,102242.28
2022-08-09T09:11:13.673Z,102238.19
2022-08-09T09:13:56.234Z,102236.16
2022-08-09T09:16:33.701Z,102237.22
2022-08-09T09:22:07.758Z,102233.59
2022-08-09T09:24:51.990Z,102241.34
2022-08-09T09:28:05.298Z,102228.78
2022-08-09T09:30:37.329Z,102223.22
2022-08-09T09:33:16.820Z,102231.28
2022-08-09T09:36:20.193Z,102227.09
2022-08-09T09:38:56.913Z,102231.72
2022-08-09T09:41:25.037Z,102221.66
2022-08-09T09:44:11.519Z,102215.09
2022-08-09T09:46:51.549Z,102217.25
2022-08-09T09:49:50.007Z,102213.59
2022-08-09T09:52:36.004Z,102211.88
2022-08-09T09:55:16.575Z,102201.72
2022-08-09T09:58:16.211Z,102203.84
2022-08-09T10:00:58.960Z,102204.44
2022-08-09T10:03:58.202Z,102204.44
2022-08-09T10:06:32.174Z,102198.84
2022-08-09T10:09:21.808Z,102201.25
2022-08-09T10:12:14.523Z,102204.88
2022-08-09T10:14:50.099Z,102200.34
2022-08-09T10:17:38.949Z,102191.56
2022-08-09T10:20:35.958Z,102178.84
2022-08-09T10:23:21.798Z,102184.88
2022-08-09T10:26:07.981Z,102182.75
2022-08-09T10:28:40.208Z,102179.38
2022-08-09T10:34:11.450Z,102162.56
2022-08-09T10:36:49.815Z,102167.47
2022-08-09T10:39:19.856Z,102165.81
2022-08-09T10:41:48.267Z,102168.09
2022-08-09T10:44:24.819Z,102160.91
2022-08-09T10:48:13.434Z,102165.47
2022-08-09T10:50:57.324Z,102163.00
2022-08-09T10:53:59.759Z,102160.41
2022-08-09T10:56:37.587Z,102162.63
2022-08-09T10:59:31.322Z,102164.72
2022-08-09T11:03:14.277Z,102159.00
2022-08-09T11:05:25.174Z,102158.50
2022-08-09T11:07:59.441Z,102159.09
2022-08-09T11:10:54.506Z,102164.09
2022-08-09T11:13:50.339Z,102149.34
2022-08-09T11:16:35.127Z,102150.13
2022-08-09T11:19:09.875Z,102149.53
2022-08-09T11:22:10.515Z,102147.00
2022-08-09T11:25:03.618Z,102133.47
2022-08-09T11:28:03.580Z,102142.53
2022-08-09T11:30:34.432Z,102137.78
2022-08-09T11:33:17.004Z,102133.28
2022-08-09T11:36:00.918Z,102149.31
2022-08-09T11:38:34.772Z,102154.69
2022-08-09T11:41:13.419Z,102156.06
2022-08-09T11:43:49.034Z,102163.00
2022-08-09T11:46:26.864Z,102157.53
2022-08-09T11:49:05.331Z,102156.44
2022-08-09T11:53:00.728Z,102157.56
2022-08-09T11:55:53.724Z,102142.34
2022-08-09T11:58:32.366Z,102147.19
2022-08-09T12:01:08.602Z,102144.72
2022-08-09T12:03:56.543Z,102132.00
2022-08-09T12:06:32.893Z,102138.28
2022-08-09T12:09:17.541Z,102143.81
2022-08-09T12:12:04.074Z,102143.59
2022-08-09T12:14:36.693Z,102146.22
2022-08-09T12:17:27.922Z,102136.09
2022-08-09T12:19:59.617Z,102133.28
2022-08-09T12:22:29.045Z,102138.28
2022-08-09T12:25:35.914Z,102137.94
2022-08-09T12:29:14.402Z,102146.03
2022-08-09T12:31:03.040Z,102149.63
2022-08-09T12:33:58.517Z,102153.47
2022-08-09T12:36:31.692Z,102159.19
2022-08-09T12:39:00.270Z,102149.31
2022-08-09T12:41:38.097Z,102147.03
2022-08-09T12:44:09.981Z,102141.31
2022-08-09T12:46:48.532Z,102144.69
2022-08-09T12:49:17.141Z,102140.13
2022-08-09T12:52:02.781Z,102137.59
2022-08-09T12:56:10.814Z,102133.34
2022-08-09T12:57:46.367Z,102144.63
2022-08-09T13:00:25.655Z,102136.22
2022-08-09T13:02:59.844Z,102130.25
2022-08-09T13:05:51.751Z,102122.94
2022-08-09T13:08:39.809Z,102115.00
2022-08-09T13:11:13.063Z,102113.81
2022-08-09T13:14:42.859Z,102099.59
2022-08-09T13:16:48.030Z,102087.16
2022-08-09T13:20:10.278Z,102091.78
2022-08-09T13:22:36.208Z,102090.00
2022-08-09T13:25:14.187Z,102088.50
2022-08-09T13:27:54.403Z,102082.66
2022-08-09T13:30:49.164Z,102085.50
2022-08-09T13:33:16.984Z,102081.81
2022-08-09T13:36:24.314Z,102098.66
2022-08-09T13:38:58.024Z,102089.50
2022-08-09T13:41:57.742Z,102097.31
2022-08-09T13:44:16.504Z,102094.03
2022-08-09T13:47:29.744Z,102094.31
2022-08-09T13:49:38.045Z,102111.47
2022-08-09T13:52:23.170Z,102103.47
2022-08-09T13:55:00.082Z,102099.09
2022-08-09T13:57:35.326Z,102109.63
2022-08-09T14:00:12.231Z,102119.16
2022-08-09T14:03:03.016Z,102117.06
2022-08-09T14:05:56.851Z,102115.06
2022-08-09T14:08:23.777Z,102103.03
2022-08-09T14:10:54.319Z,102088.97
2022-08-09T14:14:14.817Z,102087.19
2022-08-09T14:16:15.603Z,102085.06
2022-08-09T14:18:50.010Z,102072.81
2022-08-09T14:21:23.252Z,102075.06
2022-08-09T14:23:56.599Z,102082.22
2022-08-09T14:26:31.526Z,102079.59
2022-08-09T14:29:08.080Z,102069.56
2022-08-09T14:32:19.891Z,102071.81
2022-08-09T14:34:58.157Z,102083.56
2022-08-09T14:37:28.133Z,102076.69
2022-08-09T14:39:55.783Z,102078.47
2022-08-09T14:42:30.598Z,102077.06
2022-08-09T14:46:51.190Z,102077.84
2022-08-09T14:47:59.617Z,102085.22
2022-08-09T14:50:31.372Z,102075.94
2022-08-09T14:53:12.083Z,102082.59
2022-08-09T14:55:50.308Z,102089.56
2022-08-09T14:58:18.436Z,102088.38
2022-08-09T15:00:48.306Z,102091.88
2022-08-09T15:03:20.393Z,102096.59
2022-08-09T15:05:50.506Z,102104.47
2022-08-09T15:08:20.893Z,102100.34
2022-08-09T15:11:16.573Z,102102.41
2022-08-09T15:13:48.143Z,102103.31
2022-08-09T15:16:30.336Z,102100.19
2022-08-09T15:18:59.500Z,102109.72
2022-08-09T15:22:01.768Z,102102.25
2022-08-09T15:24:22.571Z,102108.66
2022-08-09T15:26:54.360Z,102118.84
2022-08-09T15:30:56.334Z,102112.28
2022-08-09T15:32:39.090Z,102113.34
2022-08-09T15:34:59.869Z,102118.16
2022-08-09T15:37:37.384Z,102108.28
2022-08-09T15:40:11.803Z,102116.50
2022-08-09T15:42:42.600Z,102105.34
2022-08-09T15:45:12.093Z,102110.09
2022-08-09T15:47:47.178Z,102110.47
2022-08-09T15:50:20.371Z,102108.66
2022-08-09T15:52:55.016Z,102103.69
2022-08-09T15:55:53.985Z,102105.78
2022-08-09T15:58:26.625Z,102104.44
2022-08-09T16:00:56.693Z,102102.09
2022-08-09T16:03:29.300Z,102102.25
2022-08-09T16:06:06.172Z,102098.56
2022-08-09T16:08:33.839Z,102096.81
2022-08-09T16:11:02.559Z,102098.59
2022-08-09T16:14:02.810Z,102099.91
2022-08-09T16:16:25.922Z,102098.97
2022-08-09T16:18:55.398Z,102098.41
2022-08-09T16:21:25.595Z,102104.44
2022-08-09T16:24:02.030Z,102089.59
2022-08-09T16:26:35.602Z,102105.78
2022-08-09T16:29:12.926Z,102111.31
2022-08-09T16:32:19.834Z,102103.69
2022-08-09T16:34:56.455Z,102108.06
2022-08-09T16:37:17.905Z,102105.78
2022-08-09T16:40:02.695Z,102103.72
2022-08-09T16:42:33.477Z,102102.38
2022-08-09T16:45:00.835Z,102102.38
2022-08-09T16:48:39.026Z,102101.47
2022-08-09T16:50:29.368Z,102096.50
2022-08-09T16:53:01.119Z,102100.59
2022-08-09T16:55:44.125Z,102096.44
2022-08-09T16:58:17.541Z,102098.78
2022-08-09T17:00:46.538Z,102098.38
2022-08-09T17:03:22.278Z,102098.66
2022-08-09T17:06:07.239Z,102102.56
2022-08-09T17:09:01.834Z,102108.81
2022-08-09T17:11:40.757Z,102109.47
2022-08-09T17:14:25.468Z,102117.38
2022-08-09T17:17:01.869Z,102113.69
2022-08-09T17:20:11.125Z,102125.69
2022-08-09T17:22:23.614Z,102122.03
2022-08-09T17:24:54.825Z,102124.28
2022-08-09T17:27:23.046Z,102129.75
2022-08-09T17:29:52.178Z,102145.75
2022-08-09T17:32:26.469Z,102144.53
2022-08-09T17:35:11.780Z,102145.41
2022-08-09T17:38:07.657Z,102145.44
2022-08-09T17:40:34.911Z,102149.69
2022-08-09T17:43:32.503Z,102145.34
2022-08-09T17:46:03.069Z,102150.63
2022-08-09T17:48:40.420Z,102149.34
2022-08-09T17:51:18.266Z,102155.16
2022-08-09T17:53:51.756Z,102154.97
2022-08-09T17:56:28.736Z,102155.22
2022-08-09T17:59:03.221Z,102160.13
2022-08-09T18:02:03.314Z,102159.25
2022-08-09T18:04:23.044Z,102157.69
2022-08-09T18:06:55.422Z,102170.41
2022-08-09T18:09:41.127Z,102166.31
2022-08-09T18:12:17.061Z,102169.75
2022-08-09T18:14:55.099Z,102169.75
2022-08-09T18:17:27.464Z,102175.25
2022-08-09T18:20:54.860Z,102185.97
2022-08-09T18:22:59.833Z,102184.56
2022-08-09T18:25:52.885Z,102191.06
2022-08-09T18:30:38.264Z,102188.03
2022-08-09T18:31:13.933Z,102199.00
2022-08-09T18:33:45.194Z,102196.47
2022-08-09T18:36:25.749Z,102197.00
2022-08-09T18:39:02.929Z,102197.19
2022-08-09T18:41:34.908Z,102205.91
2022-08-09T18:44:13.227Z,102218.38
2022-08-09T18:46:50.227Z,102205.47
2022-08-09T18:49:43.573Z,102207.06
2022-08-09T18:52:15.970Z,102214.31
2022-08-09T18:54:52.527Z,102212.84
2022-08-09T18:57:22.261Z,102226.41
2022-08-09T18:59:57.388Z,102225.47
2022-08-09T19:02:31.861Z,102228.38
2022-08-09T19:05:03.873Z,102227.69
2022-08-09T19:07:43.362Z,102230.06
2022-08-09T19:10:37.375Z,102232.13
2022-08-09T19:13:20.027Z,102233.28
2022-08-09T19:15:56.253Z,102231.47
2022-08-09T19:18:35.219Z,102245.00
2022-08-09T19:21:09.212Z,102242.94
2022-08-09T19:24:37.832Z,102252.59
2022-08-09T19:26:32.419Z,102244.50
2022-08-09T19:29:15.161Z,102243.00
2022-08-09T19:31:51.152Z,102255.06
2022-08-09T19:34:22.880Z,102245.06
2022-08-09T19:36:57.611Z,102253.91
2022-08-09T19:39:29.345Z,102267.91
2022-08-09T19:42:15.231Z,102268.00
2022-08-09T19:44:50.725Z,102265.06
2022-08-09T19:47:23.607Z,102257.47
2022-08-09T19:50:08.840Z,102254.84
2022-08-09T19:52:49.328Z,102269.09
2022-08-09T19:55:30.418Z,102261.22
2022-08-09T19:57:58.215Z,102270.03
2022-08-09T20:00:25.231Z,102264.88
2022-08-09T20:04:26.162Z,102268.22
2022-08-09T20:05:47.008Z,102264.44
2022-08-09T20:08:25.121Z,102269.38
2022-08-09T20:11:04.350Z,102279.81
2022-08-09T20:13:37.328Z,102274.94
2022-08-09T20:16:37.770Z,102276.03
2022-08-09T20:19:42.461Z,102284.25
2022-08-09T20:21:56.985Z,102275.53
2022-08-09T20:24:29.865Z,102290.84
2022-08-09T20:27:03.071Z,102285.69
2022-08-09T20:29:37.627Z,102292.28
2022-08-09T20:32:30.642Z,102288.72
2022-08-09T20:34:58.903Z,102292.03
2022-08-09T20:37:37.980Z,102290.13
2022-08-09T20:40:19.067Z,102294.78
2022-08-09T20:43:12.182Z,102285.00
2022-08-09T20:45:59.228Z,102287.19
2022-08-09T20:48:31.332Z,102275.22
2022-08-09T20:51:00.850Z,102286.06
2022-08-09T20:53:37.174Z,102278.44
2022-08-09T20:56:20.337Z,102291.00
2022-08-09T20:58:50.797Z,102300.56
2022-08-09T21:01:34.073Z,102306.28
2022-08-09T21:05:52.140Z,102304.94
2022-08-09T21:06:59.108Z,102306.84
2022-08-09T21:09:45.386Z,102304.13
2022-08-09T21:14:48.356Z,102301.69
2022-08-09T21:18:11.010Z,102307.69
2022-08-09T21:20:22.330Z,102307.41
2022-08-09T21:22:52.672Z,102306.03
2022-08-09T21:25:43.945Z,102310.13
2022-08-09T21:28:39.848Z,102314.19
2022-08-09T21:31:23.461Z,102319.84
2022-08-09T21:33:54.504Z,102316.59
2022-08-09T21:36:28.595Z,102319.03
2022-08-09T21:38:59.987Z,102320.38
2022-08-09T21:41:59.858Z,102320.91
2022-08-09T21:44:33.886Z,102316.56
2022-08-09T21:47:09.369Z,102319.00
2022-08-09T21:49:40.329Z,102325.25
2022-08-09T21:52:17.475Z,102313.53
2022-08-09T21:54:59.541Z,102318.97
2022-08-09T21:57:39.169Z,102320.03
2022-08-09T22:00:25.541Z,102328.44
2022-08-09T22:02:59.096Z,102319.44
2022-08-09T22:05:35.817Z,102321.84
2022-08-09T22:08:16.723Z,102320.19
2022-08-09T22:11:50.228Z,102322.06
2022-08-09T22:13:36.982Z,102325.31
2022-08-09T22:16:07.928Z,102328.56
2022-08-09T22:18:37.887Z,102328.56
2022-08-09T22:21:09.773Z,102325.25
2022-08-09T22:24:01.586Z,102320.03
2022-08-09T22:26:35.235Z,102326.56
2022-08-09T22:29:09.050Z,102323.53
2022-08-09T22:31:44.318Z,102320.53
2022-08-09T22:34:26.421Z,102319.41
2022-08-09T22:36:56.452Z,102312.59
2022-08-09T22:39:55.512Z,102325.09
2022-08-09T22:42:22.324Z,102328.84
2022-08-09T22:45:00.055Z,102330.19
2022-08-09T22:48:18.555Z,102327.72
2022-08-09T22:50:31.959Z,102324.91
2022-08-09T22:53:03.733Z,102333.59
2022-08-09T22:56:07.198Z,102335.19
2022-08-09T22:58:20.154Z,102334.34
2022-08-09T23:01:02.107Z,102325.88
2022-08-09T23:04:04.778Z,102335.13
2022-08-09T23:06:34.942Z,102333.72
2022-08-09T23:09:05.679Z,102331.25
2022-08-09T23:11:32.633Z,102324.97
2022-08-09T23:13:59.803Z,102337.97
2022-08-09T23:16:27.045Z,102338.47
2022-08-09T23:18:54.036Z,102337.59
2022-08-09T23:21:23.913Z,102334.59
2022-08-09T23:24:04.189Z,102336.75
2022-08-09T23:26:35.802Z,102334.50
2022-08-09T23:29:04.564Z,102342.59
2022-08-09T23:31:31.618Z,102333.88
2022-08-09T23:33:58.870Z,102340.34
2022-08-09T23:36:25.722Z,102337.06
2022-08-09T23:38:52.665Z,102336.50
2022-08-09T23:41:28.476Z,102330.19
2022-08-09T23:43:59.364Z,102336.38
2022-08-09T23:46:28.253Z,102341.81
2022-08-09T23:48:55.537Z,102340.94
2022-08-09T23:51:22.724Z,102337.09
2022-08-09T23:53:52.332Z,102336.78
2022-08-09T23:56:21.861Z,102335.66
2022-08-09T23:59:07.345Z,102338.06
